Time;durP1;ratioP1;P1;durP2;ratioP2;P2;SDS_P1;SDS_P2;PMS_P1;PMS_P2;Temp;Humidity;BMP_temperature;BMP_pressure;BME280_temperature;BME280_humidity;BME280_pressure;Samples;Min_cycle;Max_cycle;Signal;HPM_P1;HPM_P2
2024/04/04 00:00:31;;;;;;;1.60;0.40;;;;;20.30;99703.00;;;;2043101;28;20699;-57
2024/04/04 00:01:32;;;;;;;1.93;0.47;;;;;20.30;99708.00;;;;2050499;28;20599;-59
2024/04/04 00:02:32;;;;;;;1.77;0.30;;;;;20.40;99701.00;;;;2050408;28;20489;-59
2024/04/04 00:03:32;;;;;;;1.40;0.40;;;;;20.30;99706.00;;;;2051361;28;20643;-57
2024/04/04 00:04:33;;;;;;;2.63;0.40;;;;;20.30;99706.00;;;;2041937;28;20239;-58
2024/04/04 00:05:33;;;;;;;1.40;0.50;;;;;20.30;99704.00;;;;2041326;28;20310;-56
2024/04/04 00:06:34;;;;;;;1.80;0.40;;;;;20.30;99710.00;;;;2051492;28;20224;-57
2024/04/04 00:07:35;;;;;;;1.58;0.50;;;;;20.30;99707.00;;;;2052027;28;20262;-56
2024/04/04 00:08:35;;;;;;;1.30;0.30;;;;;20.30;99704.00;;;;2052548;28;20227;-58
2024/04/04 00:09:35;;;;;;;1.70;0.40;;;;;20.30;99700.00;;;;2054585;28;20247;-55
2024/04/04 00:10:36;;;;;;;1.50;0.47;;;;;20.30;99701.00;;;;2042715;28;20220;-56
2024/04/04 00:11:36;;;;;;;1.40;0.40;;;;;20.30;99697.00;;;;2051326;28;20303;-57
2024/04/04 00:12:36;;;;;;;1.50;0.40;;;;;20.30;99699.00;;;;2051859;28;20219;-58
2024/04/04 00:13:37;;;;;;;1.37;0.43;;;;;20.30;99713.00;;;;2051171;28;20242;-59
2024/04/04 00:14:37;;;;;;;1.40;0.40;;;;;20.30;99701.00;;;;2051947;28;20290;-58
2024/04/04 00:15:41;;;;;;;1.60;0.40;;;;;20.30;99708.00;;;;2040301;28;20274;-57
2024/04/04 00:16:41;;;;;;;1.45;0.40;;;;;20.30;99709.00;;;;2048743;28;20239;-58
2024/04/04 00:17:43;;;;;;;2.10;0.57;;;;;20.30;99706.00;;;;2051171;28;20223;-58
2024/04/04 00:18:46;;;;;;;1.60;0.40;;;;;20.30;99707.00;;;;2051756;28;20219;-59
2024/04/04 00:19:46;;;;;;;2.00;0.55;;;;;20.30;99710.00;;;;2050610;28;20278;-56
2024/04/04 00:20:48;;;;;;;1.67;0.40;;;;;20.30;99717.00;;;;2032947;28;20221;-58
2024/04/04 00:21:48;;;;;;;1.85;0.40;;;;;20.30;99717.00;;;;2051113;28;20762;-55
2024/04/04 00:22:48;;;;;;;1.83;0.50;;;;;20.30;99709.00;;;;2051429;28;20219;-55
2024/04/04 00:23:49;;;;;;;1.30;0.40;;;;;20.30;99710.00;;;;2052557;28;20331;-57
2024/04/04 00:24:49;;;;;;;2.90;0.40;;;;;20.30;99719.00;;;;2049862;28;20238;-57
2024/04/04 00:25:49;;;;;;;2.70;0.50;;;;;20.30;99701.00;;;;2041535;28;20216;-56
2024/04/04 00:26:50;;;;;;;1.57;0.40;;;;;20.30;99705.00;;;;2052666;28;20277;-57
2024/04/04 00:27:50;;;;;;;1.63;0.50;;;;;20.30;99696.00;;;;2052099;28;20235;-55
2024/04/04 00:28:50;;;;;;;2.53;0.60;;;;;20.30;99695.00;;;;2044945;28;20216;-55
2024/04/04 00:29:51;;;;;;;1.73;0.60;;;;;20.30;99703.00;;;;2052484;28;20215;-58
2024/04/04 00:30:51;;;;;;;2.80;0.40;;;;;20.30;99693.00;;;;2048698;28;20223;-58
2024/04/04 00:31:51;;;;;;;2.27;0.50;;;;;20.30;99695.00;;;;2051906;28;20669;-55
2024/04/04 00:32:53;;;;;;;1.40;0.30;;;;;20.30;99696.00;;;;2051199;28;20900;-56
2024/04/04 00:33:53;;;;;;;1.67;0.40;;;;;20.30;99694.00;;;;2052821;28;20223;-56
2024/04/04 00:34:54;;;;;;;1.70;0.40;;;;;20.30;99695.00;;;;2051756;28;20246;-58
2024/04/04 00:35:54;;;;;;;1.80;0.50;;;;;20.30;99695.00;;;;2043077;28;20219;-58
2024/04/04 00:36:54;;;;;;;1.30;0.30;;;;;20.30;99691.00;;;;2052572;28;20223;-57
2024/04/04 00:37:55;;;;;;;2.50;0.47;;;;;20.30;99691.00;;;;2052095;28;20224;-58
2024/04/04 00:38:55;;;;;;;1.87;0.47;;;;;20.30;99685.00;;;;2052549;28;20219;-56
2024/04/04 00:39:55;;;;;;;2.40;0.40;;;;;20.30;99682.00;;;;2051586;28;20320;-57
2024/04/04 00:40:55;;;;;;;2.47;0.50;;;;;20.30;99681.00;;;;2041759;28;20226;-57
2024/04/04 00:41:56;;;;;;;1.57;0.43;;;;;20.30;99680.00;;;;2050845;28;20437;-62
2024/04/04 00:42:58;;;;;;;3.00;0.50;;;;;20.30;99682.00;;;;2048172;28;20308;-59
2024/04/04 00:43:59;;;;;;;1.52;0.40;;;;;20.30;99687.00;;;;2052689;28;20227;-57
2024/04/04 00:44:59;;;;;;;1.67;0.53;;;;;20.30;99690.00;;;;2051850;28;20219;-55
2024/04/04 00:46:00;;;;;;;1.80;0.60;;;;;20.30;99679.00;;;;2040100;28;20239;-56
2024/04/04 00:47:01;;;;;;;2.03;0.50;;;;;20.30;99670.00;;;;2043271;28;20220;-58
2024/04/04 00:48:01;;;;;;;1.80;0.50;;;;;20.30;99677.00;;;;2046550;28;20263;-57
2024/04/04 00:49:01;;;;;;;1.33;0.40;;;;;20.30;99670.00;;;;2051603;28;20231;-55
2024/04/04 00:50:02;;;;;;;1.77;0.50;;;;;20.30;99669.00;;;;2050875;28;20759;-58
2024/04/04 00:51:02;;;;;;;2.00;0.50;;;;;20.30;99680.00;;;;2044931;28;20231;-57
2024/04/04 00:52:08;;;;;;;2.30;0.50;;;;;20.30;99670.00;;;;2048409;28;20212;-56
2024/04/04 00:53:09;;;;;;;2.33;0.55;;;;;20.30;99670.00;;;;2045815;28;20592;-57
2024/04/04 00:54:09;;;;;;;1.73;0.57;;;;;20.30;99667.00;;;;2050931;28;20220;-56
2024/04/04 00:55:09;;;;;;;1.70;0.50;;;;;20.30;99671.00;;;;2034396;28;20216;-58
2024/04/04 00:56:10;;;;;;;2.00;0.50;;;;;20.30;99673.00;;;;2043309;28;20290;-58
2024/04/04 00:57:10;;;;;;;1.80;0.60;;;;;20.30;99664.00;;;;2043069;28;20214;-55
2024/04/04 00:58:11;;;;;;;2.67;0.60;;;;;20.30;99670.00;;;;2043936;28;20250;-56
2024/04/04 00:59:12;;;;;;;2.33;0.50;;;;;20.30;99661.00;;;;2051126;28;20243;-57
2024/04/04 01:00:13;;;;;;;1.35;0.40;;;;;20.30;99660.00;;;;2042995;28;20216;-58
2024/04/04 01:01:13;;;;;;;1.70;0.40;;;;;20.30;99664.00;;;;2051115;28;20295;-56
2024/04/04 01:02:14;;;;;;;2.00;0.40;;;;;20.30;99654.00;;;;2051542;28;23263;-59
2024/04/04 01:03:14;;;;;;;1.50;0.50;;;;;20.30;99651.00;;;;2052550;28;20215;-58
2024/04/04 01:04:14;;;;;;;1.80;0.50;;;;;20.30;99661.00;;;;2050726;28;20243;-55
2024/04/04 01:05:17;;;;;;;2.80;0.40;;;;;20.20;99670.00;;;;2042021;28;20215;-59
2024/04/04 01:06:30;;;;;;;2.42;0.80;;;;;20.30;99663.00;;;;2048460;28;20285;-59
2024/04/04 01:07:32;;;;;;;2.10;0.40;;;;;20.30;99632.00;;;;2049392;28;20768;-55
2024/04/04 01:08:35;;;;;;;2.22;0.40;;;;;20.20;99656.00;;;;2050762;28;20984;-57
2024/04/04 01:09:35;;;;;;;2.20;0.40;;;;;20.20;99643.00;;;;2051670;28;20223;-58
2024/04/04 01:10:36;;;;;;;1.70;0.40;;;;;20.30;99656.00;;;;2040465;28;20228;-56
2024/04/04 01:11:36;;;;;;;1.60;0.40;;;;;20.20;99648.00;;;;2051205;28;20287;-58
2024/04/04 01:12:38;;;;;;;1.70;0.47;;;;;20.30;99651.00;;;;2052280;28;20235;-57
2024/04/04 01:13:38;;;;;;;2.10;0.45;;;;;20.20;99644.00;;;;2050781;28;20227;-58
2024/04/04 01:14:38;;;;;;;1.67;0.50;;;;;20.30;99643.00;;;;2052440;28;20246;-57
2024/04/04 01:15:39;;;;;;;1.30;0.30;;;;;20.30;99646.00;;;;2041771;28;20218;-57
2024/04/04 01:16:39;;;;;;;2.00;0.40;;;;;20.30;99673.00;;;;2052066;28;20211;-55
2024/04/04 01:17:40;;;;;;;1.97;0.60;;;;;20.30;99646.00;;;;2052193;28;20219;-57
2024/04/04 01:18:40;;;;;;;1.43;0.40;;;;;20.30;99643.00;;;;2051476;28;20268;-58
2024/04/04 01:19:40;;;;;;;2.43;0.70;;;;;20.20;99644.00;;;;2052301;28;20230;-58
2024/04/04 01:20:41;;;;;;;2.60;0.50;;;;;20.30;99644.00;;;;2041084;28;20741;-55
2024/04/04 01:21:41;;;;;;;1.80;0.57;;;;;20.20;99634.00;;;;2051667;28;20646;-57
2024/04/04 01:22:41;;;;;;;1.40;0.43;;;;;20.20;99647.00;;;;2051584;28;20708;-56
2024/04/04 01:23:42;;;;;;;1.80;0.40;;;;;20.20;99645.00;;;;2051831;28;20716;-55
2024/04/04 01:24:42;;;;;;;1.90;0.57;;;;;20.20;99635.00;;;;2048851;28;20775;-57
2024/04/04 01:25:42;;;;;;;1.67;0.40;;;;;20.20;99638.00;;;;2039708;28;20363;-58
2024/04/04 01:26:43;;;;;;;2.17;0.50;;;;;20.30;99642.00;;;;2052179;28;20223;-58
2024/04/04 01:27:48;;;;;;;1.47;0.40;;;;;20.30;99632.00;;;;2053139;28;20226;-57
2024/04/04 01:28:48;;;;;;;1.40;0.40;;;;;20.30;99642.00;;;;2049487;28;20227;-57
2024/04/04 01:29:48;;;;;;;2.23;0.60;;;;;20.20;99638.00;;;;2049416;28;20227;-57
2024/04/04 01:30:49;;;;;;;1.30;0.40;;;;;20.20;99636.00;;;;2037204;28;20238;-58
2024/04/04 01:31:49;;;;;;;1.50;0.40;;;;;20.20;99640.00;;;;2050272;28;20310;-57
2024/04/04 01:32:49;;;;;;;2.90;0.57;;;;;20.20;99635.00;;;;2051044;28;20723;-58
2024/04/04 01:33:50;;;;;;;1.60;0.50;;;;;20.20;99627.00;;;;2050502;28;20215;-57
2024/04/04 01:34:50;;;;;;;1.57;0.50;;;;;20.20;99629.00;;;;2049770;28;20235;-56
2024/04/04 01:35:51;;;;;;;1.67;0.43;;;;;20.20;99630.00;;;;2042859;28;20230;-58
2024/04/04 01:36:53;;;;;;;1.70;0.60;;;;;20.20;99627.00;;;;2051974;28;20243;-59
2024/04/04 01:37:53;;;;;;;2.65;0.50;;;;;20.20;99620.00;;;;2051530;28;20219;-57
2024/04/04 01:38:53;;;;;;;1.50;0.40;;;;;20.20;99617.00;;;;2052479;28;20243;-57
2024/04/04 01:39:54;;;;;;;1.40;0.40;;;;;20.20;99613.00;;;;2051135;28;20223;-59
2024/04/04 01:40:54;;;;;;;1.90;0.50;;;;;20.20;99611.00;;;;2042296;28;20222;-57
2024/04/04 01:41:55;;;;;;;2.47;0.40;;;;;20.20;99627.00;;;;2050039;28;20251;-57
2024/04/04 01:42:55;;;;;;;3.77;0.60;;;;;20.20;99614.00;;;;2051611;28;20277;-56
2024/04/04 01:43:55;;;;;;;1.50;0.50;;;;;20.20;99616.00;;;;2051635;28;20223;-56
2024/04/04 01:44:56;;;;;;;2.67;0.80;;;;;20.20;99617.00;;;;2058629;28;20229;-58
2024/04/04 01:45:56;;;;;;;1.30;0.30;;;;;20.30;99610.00;;;;2042787;28;20231;-57
2024/04/04 01:46:56;;;;;;;6.70;0.57;;;;;20.20;99614.00;;;;2051529;28;20272;-57
2024/04/04 01:47:57;;;;;;;1.83;0.40;;;;;20.20;99617.00;;;;2051813;28;20222;-54
2024/04/04 01:48:57;;;;;;;1.40;0.40;;;;;20.20;99609.00;;;;2050986;28;20215;-55
2024/04/04 01:49:57;;;;;;;1.43;0.40;;;;;20.20;99607.00;;;;2052373;28;20247;-57
2024/04/04 01:50:58;;;;;;;2.17;0.60;;;;;20.20;99601.00;;;;2039537;28;20279;-58
2024/04/04 01:51:58;;;;;;;1.60;0.40;;;;;20.20;99599.00;;;;2059060;28;20227;-58
2024/04/04 01:52:58;;;;;;;1.50;0.40;;;;;20.20;99599.00;;;;2050477;28;20279;-56
2024/04/04 01:53:59;;;;;;;1.80;0.57;;;;;20.20;99600.00;;;;2051199;28;20234;-57
2024/04/04 01:55:00;;;;;;;1.70;0.60;;;;;20.20;99511.00;;;;2050669;28;20234;-56
2024/04/04 01:56:00;;;;;;;1.53;0.40;;;;;20.20;99589.00;;;;2041554;28;21177;-58
2024/04/04 01:57:00;;;;;;;2.33;0.50;;;;;20.20;99600.00;;;;2051577;28;20596;-57
2024/04/04 01:58:01;;;;;;;2.07;0.50;;;;;20.20;99592.00;;;;2043855;28;20222;-59
2024/04/04 01:59:01;;;;;;;1.90;0.40;;;;;20.20;99594.00;;;;2051490;28;20223;-58
2024/04/04 02:00:01;;;;;;;3.53;0.40;;;;;20.20;99587.00;;;;2051682;28;20219;-58
2024/04/04 02:01:02;;;;;;;1.70;0.40;;;;;20.20;99589.00;;;;2039767;28;20238;-57
2024/04/04 02:02:02;;;;;;;1.47;0.40;;;;;20.20;99585.00;;;;2051961;28;20235;-59
2024/04/04 02:03:03;;;;;;;2.20;0.50;;;;;20.20;99586.00;;;;2051837;28;20211;-59
2024/04/04 02:04:03;;;;;;;1.70;0.50;;;;;20.20;99585.00;;;;2050903;28;20767;-57
2024/04/04 02:05:04;;;;;;;1.77;0.60;;;;;20.20;99584.00;;;;2050387;28;20610;-56
2024/04/04 02:06:04;;;;;;;2.43;0.43;;;;;20.20;99580.00;;;;2046184;28;20553;-56
2024/04/04 02:07:05;;;;;;;1.50;0.40;;;;;20.20;99580.00;;;;2051578;28;20211;-57
2024/04/04 02:08:05;;;;;;;1.70;0.40;;;;;20.20;99590.00;;;;2051368;28;20207;-58
2024/04/04 02:09:06;;;;;;;2.27;0.60;;;;;20.20;99581.00;;;;2050943;28;20218;-56
2024/04/04 02:10:06;;;;;;;2.35;0.60;;;;;20.20;99577.00;;;;2040952;28;20326;-57
2024/04/04 02:11:07;;;;;;;1.70;0.60;;;;;20.20;99577.00;;;;2044264;28;20219;-58
2024/04/04 02:12:09;;;;;;;2.00;0.50;;;;;20.20;99568.00;;;;2051563;28;20582;-56
2024/04/04 02:13:09;;;;;;;1.60;0.40;;;;;20.20;99574.00;;;;2051352;28;20316;-58
2024/04/04 02:14:10;;;;;;;3.47;0.50;;;;;20.20;99569.00;;;;2051107;28;20272;-56
2024/04/04 02:15:10;;;;;;;1.87;0.60;;;;;20.20;99552.00;;;;2042300;28;20212;-54
2024/04/04 02:16:10;;;;;;;2.30;0.50;;;;;20.20;99561.00;;;;2055110;28;20239;-57
2024/04/04 02:17:11;;;;;;;1.93;0.50;;;;;20.20;99562.00;;;;2053859;28;20226;-55
2024/04/04 02:18:12;;;;;;;1.50;0.40;;;;;20.20;99563.00;;;;2050865;28;20207;-57
2024/04/04 02:19:12;;;;;;;2.40;0.60;;;;;20.20;99561.00;;;;2052858;28;20245;-57
2024/04/04 02:20:12;;;;;;;3.23;0.53;;;;;20.20;99560.00;;;;2042376;28;20223;-56
2024/04/04 02:21:13;;;;;;;1.57;0.40;;;;;20.20;99567.00;;;;2052503;28;20226;-55
2024/04/04 02:22:13;;;;;;;1.80;0.40;;;;;20.20;99563.00;;;;2052972;28;20224;-56
2024/04/04 02:23:13;;;;;;;1.80;0.50;;;;;20.20;99556.00;;;;2053465;28;20226;-58
2024/04/04 02:24:14;;;;;;;2.40;0.67;;;;;20.20;99566.00;;;;2051551;28;20239;-56
2024/04/04 02:25:14;;;;;;;1.50;0.50;;;;;20.20;99553.00;;;;2043941;28;20747;-58
2024/04/04 02:26:14;;;;;;;1.30;0.30;;;;;20.20;99567.00;;;;2058861;28;20265;-57
2024/04/04 02:27:15;;;;;;;2.77;0.60;;;;;20.20;99551.00;;;;2051129;28;20556;-55
2024/04/04 02:28:15;;;;;;;1.60;0.50;;;;;20.20;99550.00;;;;2050978;28;20612;-55
2024/04/04 02:29:15;;;;;;;4.17;0.60;;;;;20.20;99550.00;;;;2052787;28;20694;-58
2024/04/04 02:30:16;;;;;;;1.73;0.43;;;;;20.20;99547.00;;;;2043764;28;20621;-58
2024/04/04 02:31:16;;;;;;;1.60;0.40;;;;;20.20;99552.00;;;;2052855;28;20579;-58
2024/04/04 02:32:16;;;;;;;3.33;0.43;;;;;20.20;99547.00;;;;2052531;28;20215;-58
2024/04/04 02:33:20;;;;;;;1.40;0.40;;;;;20.20;99471.00;;;;2052001;28;20203;-57
2024/04/04 02:34:20;;;;;;;1.30;0.30;;;;;20.20;99544.00;;;;2052489;28;20211;-58
2024/04/04 02:35:20;;;;;;;1.60;0.50;;;;;20.20;99539.00;;;;2046126;28;20568;-57
2024/04/04 02:36:23;;;;;;;1.87;0.60;;;;;20.20;99536.00;;;;2057351;28;20775;-56
2024/04/04 02:37:24;;;;;;;1.95;0.50;;;;;20.20;99536.00;;;;2046130;28;20227;-57
2024/04/04 02:38:25;;;;;;;1.33;0.40;;;;;20.20;99539.00;;;;2045045;28;20282;-58
2024/04/04 02:39:25;;;;;;;2.50;0.60;;;;;20.20;99536.00;;;;2050864;28;20215;-57
2024/04/04 02:40:25;;;;;;;2.00;0.43;;;;;20.20;99539.00;;;;2045838;28;20509;-55
2024/04/04 02:41:26;;;;;;;1.87;0.40;;;;;20.20;99528.00;;;;2059392;28;20231;-57
2024/04/04 02:42:28;;;;;;;2.37;0.60;;;;;20.20;99541.00;;;;2058250;28;20231;-58
2024/04/04 02:43:28;;;;;;;1.42;0.40;;;;;20.20;99530.00;;;;2052615;28;20639;-55
2024/04/04 02:44:28;;;;;;;1.87;0.50;;;;;20.20;99525.00;;;;2056246;28;20238;-57
2024/04/04 02:45:29;;;;;;;5.87;0.60;;;;;20.20;99520.00;;;;2043391;28;20700;-57
2024/04/04 02:46:30;;;;;;;1.60;0.50;;;;;20.20;99521.00;;;;2050247;28;20775;-56
2024/04/04 02:47:30;;;;;;;1.67;0.67;;;;;20.20;99520.00;;;;2050867;28;20470;-55
2024/04/04 02:48:31;;;;;;;1.60;0.50;;;;;20.20;99526.00;;;;2048541;28;20219;-57
2024/04/04 02:49:31;;;;;;;2.27;0.50;;;;;20.20;99521.00;;;;2053533;28;20237;-58
2024/04/04 02:50:32;;;;;;;1.70;0.40;;;;;20.20;99530.00;;;;2041352;28;20237;-57
2024/04/04 02:51:32;;;;;;;2.50;0.50;;;;;20.20;99524.00;;;;2047662;28;21054;-55
2024/04/04 02:52:33;;;;;;;1.40;0.40;;;;;20.20;99520.00;;;;2049322;28;20994;-58
2024/04/04 02:53:34;;;;;;;1.30;0.33;;;;;20.20;99516.00;;;;2050708;28;20236;-57
2024/04/04 02:54:34;;;;;;;1.87;0.50;;;;;20.20;99519.00;;;;2050646;28;20223;-55
2024/04/04 02:55:35;;;;;;;1.17;0.30;;;;;20.20;99517.00;;;;2038187;28;20587;-57
2024/04/04 02:56:35;;;;;;;1.53;0.40;;;;;20.20;99513.00;;;;2052932;28;20351;-56
2024/04/04 02:57:38;;;;;;;1.80;0.60;;;;;20.20;99502.00;;;;2052914;28;20763;-56
2024/04/04 02:58:38;;;;;;;2.30;0.80;;;;;20.20;99509.00;;;;2053616;28;20754;-57
2024/04/04 02:59:38;;;;;;;1.50;0.47;;;;;20.20;99508.00;;;;2051560;28;20227;-56
2024/04/04 03:00:40;;;;;;;1.60;0.40;;;;;20.20;99430.00;;;;2042608;28;20318;-57
2024/04/04 03:01:40;;;;;;;2.13;0.50;;;;;20.20;99506.00;;;;2051172;28;20663;-57
2024/04/04 03:02:40;;;;;;;3.90;0.73;;;;;20.20;99505.00;;;;2049830;28;22320;-57
2024/04/04 03:03:41;;;;;;;1.80;0.43;;;;;20.20;99512.00;;;;2051741;28;20229;-55
2024/04/04 03:04:41;;;;;;;1.50;0.47;;;;;20.20;99497.00;;;;2053342;28;20223;-57
2024/04/04 03:05:41;;;;;;;1.50;0.50;;;;;20.20;99496.00;;;;2042914;28;20339;-57
2024/04/04 03:06:42;;;;;;;1.90;0.50;;;;;20.20;99499.00;;;;2053080;28;20274;-57
2024/04/04 03:07:42;;;;;;;1.83;0.50;;;;;20.20;99493.00;;;;2052258;28;20216;-57
2024/04/04 03:08:43;;;;;;;1.57;0.50;;;;;20.20;99491.00;;;;2049469;28;20231;-57
2024/04/04 03:09:43;;;;;;;1.60;0.40;;;;;20.20;99491.00;;;;2052231;28;20219;-55
2024/04/04 03:10:44;;;;;;;1.70;0.33;;;;;20.20;99496.00;;;;2043011;28;20323;-57
2024/04/04 03:11:44;;;;;;;1.60;0.40;;;;;20.20;99495.00;;;;2052754;28;20218;-56
2024/04/04 03:12:49;;;;;;;1.67;0.47;;;;;20.20;99494.00;;;;2052295;28;20270;-56
2024/04/04 03:13:49;;;;;;;1.50;0.43;;;;;20.20;99494.00;;;;2053102;28;20219;-56
2024/04/04 03:14:50;;;;;;;1.90;0.50;;;;;20.20;99493.00;;;;2052233;28;20226;-56
2024/04/04 03:15:57;;;;;;;2.57;0.50;;;;;20.20;99490.00;;;;2043699;28;20222;-58
2024/04/04 03:16:57;;;;;;;1.48;0.40;;;;;20.20;99491.00;;;;2051150;28;20219;-58
2024/04/04 03:17:58;;;;;;;2.27;0.50;;;;;20.20;99499.00;;;;2052628;28;20706;-54
2024/04/04 03:18:58;;;;;;;1.93;0.63;;;;;20.20;99497.00;;;;2051287;28;21382;-57
2024/04/04 03:19:58;;;;;;;1.70;0.47;;;;;20.20;99489.00;;;;2052134;28;20223;-57
2024/04/04 03:20:59;;;;;;;1.97;0.50;;;;;20.20;99489.00;;;;2042340;28;20238;-55
2024/04/04 03:21:59;;;;;;;1.40;0.40;;;;;20.20;99490.00;;;;2051248;28;20227;-57
2024/04/04 03:22:59;;;;;;;2.87;0.70;;;;;20.20;99490.00;;;;2052841;28;20222;-57
2024/04/04 03:24:00;;;;;;;1.83;0.50;;;;;20.20;99401.00;;;;2051748;28;20645;-57
2024/04/04 03:25:00;;;;;;;1.90;0.50;;;;;20.20;99485.00;;;;2053618;28;20694;-57
2024/04/04 03:26:00;;;;;;;1.90;0.50;;;;;20.20;99497.00;;;;2042791;28;20649;-57
2024/04/04 03:27:00;;;;;;;1.60;0.50;;;;;20.20;99489.00;;;;2052079;28;20231;-57
2024/04/04 03:28:01;;;;;;;1.40;0.40;;;;;20.20;99487.00;;;;2052004;28;20246;-59
2024/04/04 03:29:01;;;;;;;1.43;0.43;;;;;20.20;99479.00;;;;2051456;28;20831;-59
2024/04/04 03:30:02;;;;;;;1.77;0.40;;;;;20.20;99480.00;;;;2052942;28;20637;-58
2024/04/04 03:31:02;;;;;;;1.60;0.50;;;;;20.20;99479.00;;;;2042517;28;20223;-57
2024/04/04 03:32:03;;;;;;;2.07;0.30;;;;;20.20;99480.00;;;;2051782;28;20274;-58
2024/04/04 03:33:03;;;;;;;1.70;0.50;;;;;20.20;99473.00;;;;2052309;28;20223;-58
2024/04/04 03:34:04;;;;;;;1.93;0.47;;;;;20.20;99472.00;;;;2051994;28;20246;-58
2024/04/04 03:35:04;;;;;;;1.70;0.53;;;;;20.20;99472.00;;;;2050332;28;20227;-59
2024/04/04 03:36:05;;;;;;;2.07;0.50;;;;;20.20;99471.00;;;;2053853;28;20223;-56
2024/04/04 03:37:05;;;;;;;1.50;0.40;;;;;20.20;99468.00;;;;2059704;28;20222;-57
2024/04/04 03:38:05;;;;;;;2.93;0.60;;;;;20.20;99463.00;;;;2046939;28;20230;-57
2024/04/04 03:39:06;;;;;;;3.37;0.70;;;;;20.20;99466.00;;;;2051452;28;20251;-57
2024/04/04 03:40:07;;;;;;;2.37;0.43;;;;;20.20;99460.00;;;;2043239;28;20220;-59
2024/04/04 03:41:08;;;;;;;2.00;0.40;;;;;20.20;99466.00;;;;2057017;28;20215;-58
2024/04/04 03:42:08;;;;;;;1.93;0.60;;;;;20.20;99461.00;;;;2059544;28;21191;-59
2024/04/04 03:43:08;;;;;;;2.43;0.70;;;;;20.20;99461.00;;;;2051753;28;20219;-57
2024/04/04 03:44:09;;;;;;;1.30;0.40;;;;;20.10;99460.00;;;;2051864;28;20223;-57
2024/04/04 03:45:09;;;;;;;1.50;0.40;;;;;20.20;99461.00;;;;2042549;28;20230;-56
2024/04/04 03:46:11;;;;;;;1.40;0.50;;;;;20.20;99449.00;;;;2053994;28;20290;-56
2024/04/04 03:47:12;;;;;;;1.70;0.50;;;;;20.20;99448.00;;;;2044825;28;20287;-55
2024/04/04 03:48:12;;;;;;;2.03;0.50;;;;;20.20;99444.00;;;;2048162;28;20219;-58
2024/04/04 03:49:12;;;;;;;1.57;0.50;;;;;20.20;99448.00;;;;2050482;28;20721;-57
2024/04/04 03:50:13;;;;;;;1.50;0.50;;;;;20.20;99442.00;;;;2038918;28;20212;-57
2024/04/04 03:51:13;;;;;;;2.33;0.50;;;;;20.20;99442.00;;;;2052219;28;20219;-56
2024/04/04 03:52:15;;;;;;;1.70;0.40;;;;;20.20;99446.00;;;;2051631;28;20290;-55
2024/04/04 03:53:15;;;;;;;1.70;0.50;;;;;20.20;99443.00;;;;2056921;28;20222;-55
2024/04/04 03:54:16;;;;;;;2.17;0.73;;;;;20.20;99429.00;;;;2051885;28;20625;-56
2024/04/04 03:55:16;;;;;;;1.97;0.60;;;;;20.20;99442.00;;;;2041400;28;20840;-55
2024/04/04 03:56:17;;;;;;;2.93;0.70;;;;;20.20;99425.00;;;;2059964;28;20207;-55
2024/04/04 03:57:17;;;;;;;1.50;0.50;;;;;20.20;99434.00;;;;2052756;28;20220;-56
2024/04/04 03:58:18;;;;;;;1.67;0.47;;;;;20.20;99426.00;;;;2052953;28;20231;-58
2024/04/04 03:59:19;;;;;;;1.20;0.40;;;;;20.20;99426.00;;;;2052706;28;20219;-55
2024/04/04 04:00:19;;;;;;;1.50;0.40;;;;;20.10;99433.00;;;;2041913;28;20211;-57
2024/04/04 04:01:19;;;;;;;2.33;0.60;;;;;20.10;99427.00;;;;2052251;28;20211;-57
2024/04/04 04:02:20;;;;;;;1.70;0.53;;;;;20.20;99426.00;;;;2050554;28;20223;-55
2024/04/04 04:03:20;;;;;;;1.67;0.47;;;;;20.20;99422.00;;;;2052801;28;20218;-57
2024/04/04 04:04:20;;;;;;;1.60;0.50;;;;;20.20;99423.00;;;;2051789;28;20223;-56
2024/04/04 04:05:21;;;;;;;1.90;0.47;;;;;20.20;99420.00;;;;2044670;28;20239;-57
2024/04/04 04:06:21;;;;;;;2.03;0.60;;;;;20.10;99423.00;;;;2057367;28;20215;-58
2024/04/04 04:07:21;;;;;;;1.90;0.40;;;;;20.20;99414.00;;;;2056298;28;20242;-58
2024/04/04 04:08:22;;;;;;;1.57;0.50;;;;;20.20;99422.00;;;;2052511;28;20216;-58
2024/04/04 04:09:22;;;;;;;2.90;0.50;;;;;20.20;99468.00;;;;2053191;28;20212;-59
2024/04/04 04:10:28;;;;;;;1.53;0.47;;;;;20.10;99423.00;;;;2041524;28;20804;-56
2024/04/04 04:11:28;;;;;;;2.42;0.52;;;;;20.10;99425.00;;;;2058716;28;20207;-58
2024/04/04 04:12:28;;;;;;;1.40;0.40;;;;;20.20;99423.00;;;;2056117;28;21082;-55
2024/04/04 04:13:29;;;;;;;1.70;0.40;;;;;20.10;99417.00;;;;2052667;28;20220;-56
2024/04/04 04:14:29;;;;;;;1.97;0.60;;;;;20.20;99406.00;;;;2051458;28;20230;-56
2024/04/04 04:15:29;;;;;;;1.37;0.40;;;;;20.20;99407.00;;;;2043270;28;20239;-56
2024/04/04 04:16:30;;;;;;;1.40;0.33;;;;;20.20;99409.00;;;;2050805;28;20688;-56
2024/04/04 04:17:31;;;;;;;3.53;0.60;;;;;20.10;99402.00;;;;2046079;28;20903;-57
2024/04/04 04:18:31;;;;;;;1.92;0.40;;;;;20.20;99404.00;;;;2049689;28;20220;-57
2024/04/04 04:19:32;;;;;;;1.80;0.60;;;;;20.10;99410.00;;;;2052469;28;20223;-58
2024/04/04 04:21:54;;;;;;;1.40;0.50;;;;;20.20;99408.00;;;;2050707;28;20224;-59
2024/04/04 04:22:55;;;;;;;1.40;0.50;;;;;20.20;99407.00;;;;2050213;28;20243;-58
2024/04/04 04:23:57;;;;;;;2.50;0.47;;;;;20.10;99408.00;;;;2056334;28;20214;-57
2024/04/04 04:24:58;;;;;;;1.65;0.55;;;;;20.10;99408.00;;;;2051926;28;20215;-58
2024/04/04 04:25:58;;;;;;;1.50;0.40;;;;;20.20;99407.00;;;;2048277;28;20238;-59
2024/04/04 04:26:58;;;;;;;1.60;0.50;;;;;20.10;99408.00;;;;2059742;28;20450;-57
2024/04/04 04:27:59;;;;;;;1.83;0.50;;;;;20.10;99307.00;;;;2053390;28;20215;-56
2024/04/04 04:28:59;;;;;;;2.20;0.70;;;;;20.10;99393.00;;;;2056476;28;20646;-56
2024/04/04 04:29:59;;;;;;;1.70;0.57;;;;;20.10;99399.00;;;;2054517;28;20215;-55
2024/04/04 04:31:00;;;;;;;1.50;0.40;;;;;20.20;99399.00;;;;2044353;28;20886;-55
2024/04/04 04:32:00;;;;;;;2.00;0.40;;;;;20.10;99398.00;;;;2060172;28;20741;-58
2024/04/04 04:33:01;;;;;;;1.83;0.50;;;;;20.10;99395.00;;;;2052152;28;20220;-57
2024/04/04 04:34:04;;;;;;;2.33;0.60;;;;;20.10;99399.00;;;;2046591;28;20226;-56
2024/04/04 04:35:06;;;;;;;1.30;0.35;;;;;20.10;99400.00;;;;2046946;28;20462;-59
2024/04/04 04:36:06;;;;;;;2.15;0.40;;;;;20.10;99381.00;;;;2053731;28;20587;-57
2024/04/04 04:37:07;;;;;;;1.70;0.40;;;;;20.10;99384.00;;;;2052766;28;20259;-58
2024/04/04 04:38:08;;;;;;;1.40;0.40;;;;;20.10;99388.00;;;;2051443;28;20219;-56
2024/04/04 04:39:09;;;;;;;2.57;0.60;;;;;20.10;99381.00;;;;2052310;28;20219;-57
2024/04/04 04:40:10;;;;;;;1.60;0.40;;;;;20.10;99392.00;;;;2042791;28;20227;-58
2024/04/04 04:41:11;;;;;;;1.70;0.50;;;;;20.10;99380.00;;;;2058009;28;20370;-58
2024/04/04 04:42:11;;;;;;;1.20;0.33;;;;;20.10;99385.00;;;;2058708;28;20695;-57
2024/04/04 04:43:11;;;;;;;2.20;0.80;;;;;20.10;99374.00;;;;2051110;28;20219;-59
2024/04/04 04:44:12;;;;;;;1.70;0.50;;;;;20.10;99375.00;;;;2049344;28;20643;-57
2024/04/04 04:45:12;;;;;;;1.40;0.40;;;;;20.20;99379.00;;;;2042116;28;20227;-56
2024/04/04 04:46:13;;;;;;;1.97;0.70;;;;;20.10;99376.00;;;;2059843;28;20234;-57
2024/04/04 04:47:13;;;;;;;1.93;0.57;;;;;20.10;99375.00;;;;2051838;28;20302;-57
2024/04/04 04:48:13;;;;;;;2.27;0.50;;;;;20.10;99378.00;;;;2050726;28;20211;-58
2024/04/04 04:49:14;;;;;;;2.20;0.40;;;;;20.20;99377.00;;;;2051830;28;20291;-57
2024/04/04 04:50:14;;;;;;;1.80;0.40;;;;;20.10;99370.00;;;;2042630;28;20219;-57
2024/04/04 04:51:14;;;;;;;1.77;0.50;;;;;20.10;99373.00;;;;2058186;28;20221;-55
2024/04/04 04:52:17;;;;;;;1.87;0.60;;;;;20.10;99369.00;;;;2057540;28;20564;-56
2024/04/04 04:53:17;;;;;;;1.80;0.65;;;;;20.10;99369.00;;;;2044884;28;20272;-54
2024/04/04 04:54:18;;;;;;;2.27;0.60;;;;;20.10;99374.00;;;;2052374;28;20691;-55
2024/04/04 04:55:18;;;;;;;1.77;0.40;;;;;20.10;99374.00;;;;2047966;28;21278;-55
2024/04/04 04:56:18;;;;;;;2.83;0.50;;;;;20.10;99365.00;;;;2067384;28;20218;-57
2024/04/04 04:57:19;;;;;;;2.37;0.50;;;;;20.10;99374.00;;;;2060219;28;20284;-55
2024/04/04 04:58:19;;;;;;;1.50;0.40;;;;;20.10;99377.00;;;;2052588;28;20223;-55
2024/04/04 04:59:20;;;;;;;2.60;0.70;;;;;20.10;99363.00;;;;2047038;28;20226;-57
2024/04/04 05:00:22;;;;;;;1.70;0.53;;;;;20.10;99363.00;;;;2040196;28;20562;-56
2024/04/04 05:01:23;;;;;;;1.60;0.40;;;;;20.10;99363.00;;;;2049457;28;20211;-58
2024/04/04 05:02:23;;;;;;;1.53;0.40;;;;;20.10;99362.00;;;;2050819;28;20269;-56
2024/04/04 05:03:24;;;;;;;1.90;0.50;;;;;20.10;99365.00;;;;2052480;28;20218;-56
2024/04/04 05:04:24;;;;;;;1.83;0.50;;;;;20.10;99362.00;;;;2049661;28;20214;-58
2024/04/04 05:05:25;;;;;;;1.67;0.40;;;;;20.10;99366.00;;;;2047660;28;20359;-56